Terminal Aerodrome Forecast
Issued by NWS

Home | Current Version | Previous Version | Text Only | Print | Product List | Glossary Off
Versions: 1 2 3 4 5 6 7 8 9 10 11 12 13 14 15 16 17 18 19 20 21 22 23 24 25 26 27 28 29 30 31 32 33 34

000
FTUS43 KLOT 302103 AAA
TAFORD
TAF AMD
KORD 302103Z 3021/0124 04012KT P6SM VCSH BKN017
      TEMPO 3023/0103 5SM -SHRA SCT008 OVC010
     FM010300 05011KT 4SM -SHRADZ BR BKN008 OVC012
     FM010800 04008KT 3SM -DZ BR OVC006
     FM011400 04010KT 5SM -SHRA BR OVC008
     FM011700 02008KT 6SM -SHRA BR OVC012=

USA.gov is the U.S. government's official web portal to all federal, state and local government web resources and services.